| time (UTC) | temp C | wind direction | speed KPH | gust KPH | rain 1hr cm | rain 24hr cm | rain mn cm | humidity % | barometer mb |
| 20260508100817 | 15 | 39 | 0.0 | 3.2 | 0.00 | 0.00 | 5.97 | 95 | 1014.5 |
| 20260508095842 | 15 | 107 | 0.0 | 1.6 | 0.00 | 0.00 | 5.71 | 95 | 1014.2 |
| 20260508094844 | 15 | 79 | 0.0 | 1.6 | 0.00 | 0.00 | 5.46 | 95 | 1014.5 |
| 20260508093820 | 15 | 72 | 0.0 | 1.6 | 0.00 | 0.00 | 5.18 | 95 | 1014.5 |
| 20260508092831 | 15 | 19 | 1.6 | 3.2 | 0.00 | 0.00 | 4.95 | 95 | 1014.8 |
| 20260508091844 | 15 | 42 | 0.0 | 1.6 | 0.00 | 0.00 | 4.70 | 95 | 1014.5 |
| 20260508090839 | 15 | 73 | 0.0 | 1.6 | 0.00 | 0.00 | 4.45 | 95 | 1014.8 |
| 20260508085816 | 15 | 49 | 0.0 | 1.6 | 0.00 | 0.00 | 4.19 | 95 | 1014.5 |
| 20260508084842 | 15 | 64 | 0.0 | 1.6 | 0.00 | 0.00 | 3.94 | 95 | 1014.8 |
| 20260508083829 | 15 | 76 | 1.6 | 3.2 | 0.00 | 0.00 | 3.68 | 94 | 1014.2 |
| 20260508082805 | 15 | 101 | 0.0 | 1.6 | 0.00 | 0.00 | 3.40 | 94 | 1014.5 |
| 20260508081832 | 15 | 111 | 1.6 | 3.2 | 0.00 | 0.00 | 3.17 | 95 | 1014.5 |
| 20260508080831 | 15 | 95 | 1.6 | 3.2 | 0.00 | 0.00 | 2.90 | 95 | 1014.8 |
| 20260508075818 | 15 | 74 | 1.6 | 3.2 | 0.00 | 0.00 | 2.67 | 95 | 1014.8 |
| 20260508074820 | 15 | 104 | 0.0 | 3.2 | 0.00 | 0.00 | 2.41 | 95 | 1015.2 |
| 20260508073817 | 15 | 104 | 0.0 | 1.6 | 0.00 | 0.00 | 2.16 | 94 | 1015.5 |
| 20260508072817 | 15 | 68 | 0.0 | 3.2 | 0.00 | 0.00 | 1.91 | 93 | 1015.5 |
| 20260508071834 | 15 | 40 | 0.0 | 1.6 | 0.00 | 0.00 | 1.65 | 92 | 1015.9 |
| 20260508070813 | 15 | 83 | 0.0 | 1.6 | 0.00 | 0.00 | 1.40 | 92 | 1015.9 |
| 20260508065812 | 15 | 51 | 1.6 | 1.6 | 0.00 | 0.00 | 1.14 | 92 | 1015.9 |
| 20260508064844 | 15 | 31 | 0.0 | 1.6 | 0.00 | 0.00 | 0.89 | 93 | 1015.9 |
| 20260508063843 | 15 | 35 | 0.0 | 1.6 | 0.00 | 0.00 | 0.64 | 93 | 1015.5 |
| 20260508062837 | 16 | 52 | 0.0 | 1.6 | 0.00 | 0.00 | 0.38 | 92 | 1015.9 |
| 20260508061834 | 16 | 65 | 0.0 | 1.6 | 0.00 | 0.00 | 0.13 | 89 | 1015.9 |
| 20260508060824 | 16 | 44 | 1.6 | 3.2 | 0.00 | 0.00 | 0.00 | 87 | 1015.9 |
| 20260508055806 | 16 | 60 | 1.6 | 3.2 | 0.00 | 0.00 | 0.00 | 87 | 1015.5 |
| 20260508053835 | 16 | 76 | 0.0 | 1.6 | 0.00 | 0.00 | 0.00 | 83 | 1016.2 |
| 20260508052834 | 16 | 98 | 0.0 | 1.6 | 0.00 | 0.00 | 0.00 | 82 | 1016.2 |
| 20260508051822 | 16 | 116 | 0.0 | 1.6 | 0.00 | 0.00 | 0.00 | 82 | 1016.2 |
| 20260508050834 | 16 | 70 | 0.0 | 1.6 | 0.00 | 0.00 | 0.00 | 85 | 1016.5 |
| 20260508045844 | 16 | 87 | 0.0 | 1.6 | 0.00 | 0.00 | 0.00 | 87 | 1016.2 |
| 20260508044828 | 16 | 57 | 0.0 | 1.6 | 0.00 | 0.00 | 0.00 | 86 | 1016.2 |
| 20260508043821 | 16 | 96 | 0.0 | 1.6 | 0.00 | 0.00 | 0.00 | 86 | 1016.2 |
| 20260508042841 | 16 | 46 | 0.0 | 1.6 | 0.00 | 0.00 | 0.00 | 85 | 1016.2 |
| 20260508040822 | 16 | 117 | 0.0 | 1.6 | 0.00 | 0.00 | 0.00 | 81 | 1016.2 |
| 20260508035822 | 17 | 50 | 0.0 | 3.2 | 0.00 | 0.00 | 0.00 | 82 | 1015.9 |
| 20260508034811 | 16 | 45 | 0.0 | 0.0 | 0.00 | 0.00 | 0.00 | 82 | 1015.9 |
| 20260508032837 | 17 | 81 | 0.0 | 1.6 | 0.00 | 0.00 | 0.00 | 82 | 1015.5 |
| 20260508031817 | 17 | 52 | 0.0 | 3.2 | 0.00 | 0.00 | 0.00 | 81 | 1015.5 |
| 20260508030831 | 17 | 38 | 0.0 | 0.0 | 0.00 | 0.00 | 0.00 | 80 | 1015.5 |
| 20260508025838 | 17 | 18 | 0.0 | 0.0 | 0.00 | 0.00 | 0.00 | 80 | 1015.2 |
| 20260508024848 | 17 | 35 | 0.0 | 1.6 | 0.00 | 0.00 | 0.00 | 79 | 1015.5 |
| 20260508023848 | 17 | 59 | 0.0 | 1.6 | 0.00 | 0.00 | 0.00 | 78 | 1015.2 |
| 20260508022808 | 17 | 54 | 0.0 | 1.6 | 0.00 | 0.00 | 0.00 | 77 | 1015.2 |
| 20260508021842 | 17 | 75 | 1.6 | 3.2 | 0.00 | 0.00 | 0.00 | 77 | 1015.2 |
| 20260508020809 | 17 | 83 | 0.0 | 1.6 | 0.00 | 0.00 | 0.00 | 76 | 1015.2 |
| 20260508015807 | 18 | 55 | 0.0 | 3.2 | 0.00 | 0.00 | 0.00 | 74 | 1015.2 |
| 20260508014804 | 18 | 83 | 0.0 | 3.2 | 0.00 | 0.00 | 0.00 | 72 | 1015.2 |
| 20260508012821 | 18 | 109 | 0.0 | 1.6 | 0.00 | 0.00 | 0.00 | 70 | 1015.2 |
| 20260508011820 | 18 | 115 | 1.6 | 3.2 | 0.00 | 0.00 | 0.00 | 69 | 1015.2 |
| 20260508010805 | 18 | 127 | 0.0 | 3.2 | 0.00 | 0.00 | 0.00 | 68 | 1015.2 |
| 20260508003831 | 19 | 151 | 1.6 | 4.8 | 0.00 | 0.00 | 0.00 | 66 | 1015.2 |
| 20260508002839 | 20 | 141 | 1.6 | 4.8 | 0.00 | 0.00 | 0.00 | 65 | 1015.2 |
| 20260508001844 | 20 | 145 | 3.2 | 6.4 | 0.00 | 0.00 | 0.00 | 64 | 1015.2 |
| 20260508000833 | 20 | 144 | 3.2 | 9.7 | 0.00 | 0.00 | 0.00 | 64 | 1015.2 |
| 20260507235832 | 20 | 156 | 1.6 | 6.4 | 0.00 | 0.00 | 0.25 | 65 | 1015.5 |
| 20260507234810 | 20 | 151 | 3.2 | 8.0 | 0.00 | 0.00 | 0.25 | 63 | 1015.2 |
| 20260507233834 | 20 | 160 | 3.2 | 9.7 | 0.00 | 0.00 | 0.25 | 62 | 1015.5 |
| 20260507232812 | 20 | 151 | 4.8 | 8.0 | 0.00 | 0.00 | 0.25 | 62 | 1015.9 |
| 20260507231827 | 20 | 145 | 4.8 | 9.7 | 0.00 | 0.00 | 0.25 | 62 | 1015.5 |
| 20260507230813 | 20 | 157 | 4.8 | 11.3 | 0.00 | 0.00 | 0.25 | 61 | 1015.5 |
| 20260507225805 | 21 | 156 | 3.2 | 8.0 | 0.00 | 0.00 | 0.25 | 61 | 1015.9 |
| 20260507224842 | 21 | 140 | 1.6 | 3.2 | 0.00 | 0.00 | 0.25 | 51 | 1015.2 |
| 20260507223816 | 21 | 133 | 1.6 | 4.8 | 0.00 | 0.00 | 0.25 | 51 | 1015.9 |
| 20260507222848 | 21 | 141 | 1.6 | 4.8 | 0.00 | 0.00 | 0.25 | 51 | 1015.9 |
| 20260507221817 | 21 | 112 | 0.0 | 3.2 | 0.00 | 0.00 | 0.25 | 52 | 1015.9 |
| 20260507220812 | 21 | 139 | 1.6 | 6.4 | 0.00 | 0.00 | 0.25 | 53 | 1015.9 |
| 20260507215809 | 21 | 138 | 0.0 | 3.2 | 0.00 | 0.00 | 0.25 | 52 | 1015.9 |
| 20260507214832 | 21 | 150 | 3.2 | 6.4 | 0.00 | 0.00 | 0.25 | 52 | 1015.9 |
| 20260507213847 | 21 | 123 | 1.6 | 4.8 | 0.00 | 0.00 | 0.25 | 50 | 1015.9 |
| 20260507211818 | 21 | 103 | 3.2 | 6.4 | 0.00 | 0.00 | 0.25 | 53 | 1016.5 |
| 20260507210839 | 21 | 85 | 1.6 | 3.2 | 0.00 | 0.00 | 0.25 | 52 | 1016.5 |
| 20260507205829 | 21 | 130 | 3.2 | 4.8 | 0.00 | 0.00 | 0.25 | 53 | 1016.9 |
| 20260507202842 | 21 | 93 | 1.6 | 6.4 | 0.00 | 0.00 | 0.25 | 51 | 1016.5 |
| 20260507201846 | 21 | 86 | 1.6 | 3.2 | 0.00 | 0.00 | 0.25 | 51 | 1016.2 |
| 20260507200834 | 22 | 72 | 1.6 | 4.8 | 0.00 | 0.00 | 0.25 | 51 | 1016.5 |
| 20260507194812 | 22 | 125 | 1.6 | 3.2 | 0.00 | 0.00 | 0.25 | 50 | 1017.2 |
| 20260507193814 | 21 | 48 | 3.2 | 8.0 | 0.00 | 0.00 | 0.25 | 49 | 1017.2 |
| 20260507192823 | 21 | 108 | 1.6 | 4.8 | 0.00 | 0.00 | 0.25 | 51 | 1017.2 |
| 20260507190817 | 21 | 66 | 1.6 | 4.8 | 0.00 | 0.00 | 0.25 | 50 | 1017.9 |
| 20260507185812 | 22 | 78 | 3.2 | 6.4 | 0.00 | 0.00 | 0.25 | 49 | 1017.9 |
| 20260507184834 | 22 | 88 | 3.2 | 9.7 | 0.00 | 0.00 | 0.25 | 51 | 1017.9 |
| 20260507183836 | 21 | 115 | 4.8 | 9.7 | 0.00 | 0.00 | 0.25 | 50 | 1017.9 |
| 20260507182812 | 21 | 36 | 3.2 | 6.4 | 0.00 | 0.00 | 0.25 | 50 | 1017.9 |
| 20260507181821 | 21 | 48 | 4.8 | 9.7 | 0.00 | 0.00 | 0.25 | 52 | 1017.9 |
| 20260507180833 | 21 | 31 | 3.2 | 8.0 | 0.00 | 0.00 | 0.25 | 52 | 1017.9 |
| 20260507174818 | 20 | 71 | 3.2 | 6.4 | 0.00 | 0.00 | 0.25 | 54 | 1018.2 |
| 20260507173816 | 20 | 43 | 3.2 | 9.7 | 0.00 | 0.00 | 0.25 | 56 | 1018.6 |
| 20260507172848 | 20 | 68 | 4.8 | 8.0 | 0.00 | 0.00 | 0.25 | 56 | 1018.6 |
| 20260507171804 | 20 | 33 | 4.8 | 9.7 | 0.00 | 0.00 | 0.25 | 57 | 1018.9 |
| 20260507165820 | 19 | 64 | 3.2 | 8.0 | 0.00 | 0.00 | 0.25 | 57 | 1019.2 |
| 20260507164823 | 19 | 151 | 3.2 | 8.0 | 0.00 | 0.00 | 0.25 | 59 | 1019.6 |
| 20260507162809 | 19 | 164 | 3.2 | 4.8 | 0.00 | 0.00 | 0.25 | 59 | 1019.9 |
| 20260507161815 | 18 | 81 | 3.2 | 6.4 | 0.00 | 0.00 | 0.25 | 64 | 1019.9 |
| 20260507160828 | 17 | 77 | 3.2 | 8.0 | 0.00 | 0.00 | 0.25 | 63 | 1019.9 |
| 20260507154828 | 17 | 71 | 3.2 | 6.4 | 0.00 | 0.00 | 0.25 | 67 | 1019.9 |
| 20260507153828 | 17 | 71 | 3.2 | 6.4 | 0.00 | 0.00 | 0.25 | 70 | 1019.9 |
| 20260507152845 | 18 | 65 | 3.2 | 6.4 | 0.00 | 0.00 | 0.25 | 66 | 1020.3 |
| 20260507151836 | 17 | 77 | 3.2 | 6.4 | 0.00 | 0.00 | 0.25 | 69 | 1020.3 |
| 20260507150828 | 17 | 65 | 3.2 | 9.7 | 0.00 | 0.00 | 0.25 | 70 | 1020.3 |
| 20260507144818 | 17 | 67 | 3.2 | 6.4 | 0.00 | 0.00 | 0.25 | 73 | 1020.3 |
| 20260507143804 | 16 | 34 | 3.2 | 6.4 | 0.00 | 0.00 | 0.25 | 75 | 1020.6 |
| 20260507142819 | 16 | 38 | 3.2 | 6.4 | 0.00 | 0.00 | 0.25 | 77 | 1020.6 |
| 20260507141810 | 16 | 76 | 1.6 | 6.4 | 0.00 | 0.00 | 0.25 | 78 | 1020.3 |
| 20260507135807 | 15 | 149 | 1.6 | 6.4 | 0.00 | 0.00 | 0.25 | 83 | 1020.6 |
| 20260507133846 | 13 | 140 | 3.2 | 4.8 | 0.00 | 0.00 | 0.25 | 85 | 1020.6 |
| 20260507132834 | 13 | 141 | 1.6 | 3.2 | 0.00 | 0.00 | 0.25 | 88 | 1020.9 |
| 20260507131809 | 12 | 89 | 1.6 | 3.2 | 0.00 | 0.00 | 0.25 | 89 | 1020.9 |
| 20260507125837 | 12 | 55 | 1.6 | 3.2 | 0.00 | 0.00 | 0.25 | 89 | 1020.6 |
| 20260507124847 | 12 | 61 | 0.0 | 3.2 | 0.00 | 0.00 | 0.25 | 90 | 1020.6 |
| 20260507123848 | 12 | 63 | 0.0 | 1.6 | 0.00 | 0.00 | 0.25 | 91 | 1020.6 |
| 20260507122810 | 11 | 76 | 0.0 | 1.6 | 0.00 | 0.00 | 0.25 | 91 | 1020.6 |
| 20260507121832 | 11 | 101 | 0.0 | 1.6 | 0.00 | 0.00 | 0.25 | 91 | 1020.6 |
| 20260507120834 | 11 | 95 | 0.0 | 3.2 | 0.00 | 0.00 | 0.25 | 92 | 1020.6 |
| 20260507115821 | 11 | 99 | 0.0 | 3.2 | 0.00 | 0.00 | 0.25 | 92 | 1020.6 |
| 20260507114838 | 11 | 65 | 0.0 | 1.6 | 0.00 | 0.00 | 0.25 | 92 | 1020.6 |
| 20260507112824 | 11 | 44 | 0.0 | 1.6 | 0.00 | 0.00 | 0.25 | 92 | 1020.3 |
| 20260507111830 | 11 | 176 | 1.6 | 3.2 | 0.00 | 0.00 | 0.25 | 92 | 1019.9 |
| 20260507110833 | 11 | 212 | 1.6 | 3.2 | 0.00 | 0.00 | 0.25 | 92 | 1019.9 |
| 20260507105825 | 11 | 207 | 1.6 | 4.8 | 0.00 | 0.00 | 0.25 | 91 | 1019.9 |
| 20260507104809 | 11 | 276 | 1.6 | 3.2 | 0.00 | 0.00 | 0.25 | 90 | 1019.9 |
| 20260507103810 | 11 | 49 | 1.6 | 3.2 | 0.00 | 0.00 | 0.25 | 91 | 1019.6 |
| 20260507102847 | 11 | 209 | 1.6 | 4.8 | 0.00 | 0.00 | 0.25 | 91 | 1019.6 |
| 20260507101847 | 12 | 75 | 1.6 | 4.8 | 0.00 | 0.00 | 0.25 | 90 | 1019.2 |